BAW612 EGLL-LIRP
Flight info
| Callsign | BAW612 |
|---|---|
| Flight time | 1h 54m |
| Altitude | 37000 |
| Route | MODMI1J MODMI M185 MID L612 BOGNA UL612 OGULO DCT OKASI DCT OKEKO DCT MOU DCT MADIV DCT MOKIP DCT TUFTA DCT GEVEA DCT MOBLO DCT LURAG DCT OBUXA DCT ASTIG DCT OLETI DCT KONER KONER1D |
| Aircraft | A319/M-SDE2E3FGHIJ1RWXY/S |
Departure
| Time | 2026-04-23 18:59 |
|---|---|
| Airport | London Heathrow Airport (EGLL) |
Arrival
| Time | 2026-04-23 20:53 |
|---|---|
| Airport | Pisa International Airport (LIRP) |
| Time | Latitude | Longitude | Altitude | Speed | Heading |
|---|---|---|---|---|---|
| 2026-04-23 18:42 | 51.46821 | -0.48683 | 87 ft | 0 kts | 180° |
| 2026-04-23 18:53 | 51.46829 | -0.48683 | 87 ft | 3 kts | 178° |
| 2026-04-23 18:53 | 51.46850 | -0.48685 | 90 ft | 3 kts | 166° |
| 2026-04-23 18:53 | 51.46868 | -0.48696 | 90 ft | 3 kts | 135° |
| 2026-04-23 18:54 | 51.46876 | -0.48716 | 87 ft | 1 kts | 91° |
| 2026-04-23 18:54 | 51.46876 | -0.48718 | 87 ft | 0 kts | 90° |
| 2026-04-23 18:55 | 51.46876 | -0.48688 | 89 ft | 7 kts | 90° |
| 2026-04-23 18:56 | 51.46877 | -0.48628 | 87 ft | 9 kts | 89° |
| 2026-04-23 18:56 | 51.46857 | -0.48479 | 88 ft | 12 kts | 147° |
| 2026-04-23 18:56 | 51.46819 | -0.48471 | 87 ft | 1 kts | 180° |
| 2026-04-23 18:57 | 51.46787 | -0.48472 | 87 ft | 8 kts | 180° |
| 2026-04-23 18:57 | 51.46727 | -0.48473 | 90 ft | 10 kts | 180° |
| 2026-04-23 18:57 | 51.46650 | -0.48474 | 89 ft | 12 kts | 180° |
| 2026-04-23 18:57 | 51.46564 | -0.48474 | 89 ft | 13 kts | 179° |
| 2026-04-23 18:58 | 51.46484 | -0.48430 | 89 ft | 13 kts | 112° |
| 2026-04-23 18:58 | 51.46480 | -0.48185 | 88 ft | 40 kts | 89° |
| 2026-04-23 18:58 | 51.46483 | -0.47404 | 86 ft | 98 kts | 90° |
| 2026-04-23 18:58 | 51.46485 | -0.46015 | 87 ft | 150 kts | 90° |
| 2026-04-23 18:59 | 51.46494 | -0.44171 | 447 ft | 168 kts | 89° |
| 2026-04-23 18:59 | 51.46502 | -0.42272 | 1165 ft | 168 kts | 94° |
| 2026-04-23 18:59 | 51.46041 | -0.40503 | 1610 ft | 187 kts | 127° |
| 2026-04-23 18:59 | 51.45286 | -0.39018 | 1889 ft | 203 kts | 128° |
| 2026-04-23 19:00 | 51.44042 | -0.37614 | 2192 ft | 233 kts | 156° |
| 2026-04-23 19:00 | 51.42475 | -0.36764 | 2789 ft | 249 kts | 158° |
| 2026-04-23 19:00 | 51.41357 | -0.36168 | 3405 ft | 253 kts | 159° |
| 2026-04-23 19:01 | 51.40793 | -0.35948 | 3705 ft | 257 kts | 166° |
| 2026-04-23 19:01 | 51.39114 | -0.35433 | 4481 ft | 262 kts | 169° |
| 2026-04-23 19:01 | 51.37503 | -0.35687 | 5294 ft | 273 kts | 196° |
| 2026-04-23 19:01 | 51.35979 | -0.36861 | 5937 ft | 279 kts | 209° |
| 2026-04-23 19:02 | 51.34884 | -0.38016 | 6580 ft | 281 kts | 212° |
| 2026-04-23 19:02 | 51.33274 | -0.39818 | 7470 ft | 284 kts | 212° |
| 2026-04-23 19:02 | 51.31097 | -0.42087 | 8548 ft | 288 kts | 209° |
| 2026-04-23 19:02 | 51.29388 | -0.43678 | 9328 ft | 292 kts | 207° |
| 2026-04-23 19:03 | 51.27953 | -0.44918 | 9954 ft | 294 kts | 205° |
| 2026-04-23 19:03 | 51.25637 | -0.46816 | 10701 ft | 309 kts | 204° |
| 2026-04-23 19:03 | 51.23617 | -0.48426 | 10921 ft | 332 kts | 204° |
| 2026-04-23 19:03 | 51.21488 | -0.50100 | 11291 ft | 347 kts | 204° |
| 2026-04-23 19:04 | 51.19300 | -0.51798 | 11929 ft | 353 kts | 204° |
| 2026-04-23 19:04 | 51.17080 | -0.53506 | 12612 ft | 356 kts | 203° |
| 2026-04-23 19:04 | 51.14806 | -0.55253 | 13289 ft | 360 kts | 203° |
| 2026-04-23 19:04 | 51.12545 | -0.56992 | 13952 ft | 363 kts | 204° |
| 2026-04-23 19:05 | 51.10242 | -0.58726 | 14593 ft | 365 kts | 200° |
| 2026-04-23 19:05 | 51.07811 | -0.59804 | 15195 ft | 365 kts | 186° |
| 2026-04-23 19:05 | 51.05287 | -0.59923 | 15798 ft | 364 kts | 172° |
| 2026-04-23 19:05 | 51.02811 | -0.59073 | 16395 ft | 364 kts | 158° |
| 2026-04-23 19:06 | 51.00546 | -0.57323 | 16966 ft | 364 kts | 145° |
| 2026-04-23 19:06 | 50.98438 | -0.55070 | 17285 ft | 365 kts | 144° |
| 2026-04-23 19:06 | 50.96307 | -0.52790 | 17490 ft | 368 kts | 144° |
| 2026-04-23 19:06 | 50.94864 | -0.51252 | 17880 ft | 369 kts | 144° |
| 2026-04-23 19:07 | 50.92724 | -0.48974 | 18443 ft | 371 kts | 144° |
| 2026-04-23 19:07 | 50.90575 | -0.46689 | 18999 ft | 374 kts | 144° |
| 2026-04-23 19:07 | 50.88403 | -0.44382 | 19535 ft | 378 kts | 144° |
| 2026-04-23 19:07 | 50.86179 | -0.42022 | 20071 ft | 381 kts | 144° |
| 2026-04-23 19:08 | 50.83949 | -0.39657 | 20608 ft | 385 kts | 144° |
| 2026-04-23 19:08 | 50.81735 | -0.37314 | 21119 ft | 388 kts | 145° |
| 2026-04-23 19:08 | 50.79487 | -0.34938 | 21621 ft | 391 kts | 145° |
| 2026-04-23 19:08 | 50.77215 | -0.32540 | 22096 ft | 394 kts | 145° |
| 2026-04-23 19:09 | 50.74925 | -0.30131 | 22538 ft | 397 kts | 145° |
| 2026-04-23 19:09 | 50.72589 | -0.27676 | 22981 ft | 400 kts | 145° |
| 2026-04-23 19:09 | 50.70256 | -0.25227 | 23404 ft | 403 kts | 145° |
| 2026-04-23 19:09 | 50.67917 | -0.22772 | 23823 ft | 406 kts | 145° |
| 2026-04-23 19:10 | 50.65558 | -0.20298 | 24234 ft | 409 kts | 146° |
| 2026-04-23 19:10 | 50.63179 | -0.17807 | 24621 ft | 412 kts | 146° |
| 2026-04-23 19:10 | 50.60783 | -0.15298 | 24988 ft | 415 kts | 146° |
| 2026-04-23 19:10 | 50.58371 | -0.12773 | 25347 ft | 419 kts | 146° |
| 2026-04-23 19:11 | 50.55936 | -0.10226 | 25686 ft | 422 kts | 146° |
| 2026-04-23 19:11 | 50.53480 | -0.07662 | 26030 ft | 425 kts | 146° |
| 2026-04-23 19:11 | 50.51003 | -0.05081 | 26361 ft | 429 kts | 146° |
| 2026-04-23 19:11 | 50.48508 | -0.02490 | 26703 ft | 432 kts | 146° |
| 2026-04-23 19:12 | 50.45986 | 0.00123 | 27031 ft | 435 kts | 146° |
| 2026-04-23 19:12 | 50.43421 | 0.02778 | 27354 ft | 438 kts | 146° |
| 2026-04-23 19:12 | 50.40861 | 0.05429 | 27610 ft | 443 kts | 144° |
| 2026-04-23 19:12 | 50.38276 | 0.08108 | 27885 ft | 447 kts | 142° |
| 2026-04-23 19:13 | 50.35687 | 0.10792 | 28327 ft | 445 kts | 142° |
| 2026-04-23 19:13 | 50.33121 | 0.13443 | 28955 ft | 438 kts | 142° |
| 2026-04-23 19:13 | 50.30607 | 0.16030 | 29239 ft | 428 kts | 143° |
| 2026-04-23 19:13 | 50.28103 | 0.18605 | 29519 ft | 423 kts | 144° |
| 2026-04-23 19:14 | 50.25655 | 0.21123 | 29935 ft | 421 kts | 146° |
| 2026-04-23 19:14 | 50.23218 | 0.23624 | 30411 ft | 417 kts | 146° |
| 2026-04-23 19:14 | 50.20807 | 0.26097 | 30886 ft | 413 kts | 147° |
| 2026-04-23 19:14 | 50.18408 | 0.28558 | 31206 ft | 413 kts | 147° |
| 2026-04-23 19:15 | 50.15995 | 0.31039 | 31543 ft | 413 kts | 147° |
| 2026-04-23 19:15 | 50.13574 | 0.33530 | 31865 ft | 414 kts | 147° |
| 2026-04-23 19:15 | 50.11169 | 0.36002 | 32141 ft | 415 kts | 147° |
| 2026-04-23 19:15 | 50.08754 | 0.38479 | 32417 ft | 416 kts | 147° |
| 2026-04-23 19:16 | 50.06333 | 0.40951 | 32715 ft | 416 kts | 147° |
| 2026-04-23 19:16 | 50.03916 | 0.43419 | 33011 ft | 417 kts | 147° |
| 2026-04-23 19:16 | 50.02266 | 0.45106 | 33208 ft | 417 kts | 147° |
| 2026-04-23 19:17 | 49.96789 | 0.50704 | 33825 ft | 420 kts | 147° |
| 2026-04-23 19:17 | 49.94333 | 0.53202 | 34017 ft | 423 kts | 147° |
| 2026-04-23 19:17 | 49.91831 | 0.55739 | 34278 ft | 424 kts | 147° |
| 2026-04-23 19:17 | 49.89362 | 0.58239 | 34543 ft | 425 kts | 147° |
| 2026-04-23 19:18 | 49.86882 | 0.60754 | 34820 ft | 426 kts | 147° |
| 2026-04-23 19:18 | 49.84476 | 0.63481 | 35073 ft | 427 kts | 141° |
| 2026-04-23 19:18 | 49.82157 | 0.66427 | 35331 ft | 428 kts | 141° |
| 2026-04-23 19:18 | 49.79852 | 0.69341 | 35595 ft | 429 kts | 141° |
| 2026-04-23 19:19 | 49.75213 | 0.75169 | 36107 ft | 429 kts | 141° |
| 2026-04-23 19:19 | 49.72865 | 0.78112 | 36348 ft | 430 kts | 141° |
| 2026-04-23 19:20 | 49.68204 | 0.83941 | 36808 ft | 431 kts | 141° |
| 2026-04-23 19:20 | 49.65887 | 0.86842 | 37140 ft | 428 kts | 141° |
| 2026-04-23 19:20 | 49.63544 | 0.89769 | 37279 ft | 426 kts | 141° |
| 2026-04-23 19:20 | 49.61241 | 0.92640 | 37304 ft | 425 kts | 141° |
| 2026-04-23 19:21 | 49.54331 | 1.01231 | 37302 ft | 424 kts | 141° |
| 2026-04-23 19:22 | 49.49727 | 1.06934 | 37302 ft | 423 kts | 141° |
| 2026-04-23 19:22 | 49.42860 | 1.15442 | 37304 ft | 422 kts | 141° |
| 2026-04-23 19:23 | 49.38279 | 1.21079 | 37301 ft | 422 kts | 141° |
| 2026-04-23 19:24 | 49.31382 | 1.29551 | 37302 ft | 422 kts | 141° |
| 2026-04-23 19:24 | 49.24515 | 1.37976 | 37301 ft | 421 kts | 141° |
| 2026-04-23 19:25 | 49.15291 | 1.49211 | 37289 ft | 421 kts | 141° |
| 2026-04-23 19:26 | 49.08422 | 1.57540 | 37279 ft | 421 kts | 141° |
| 2026-04-23 19:27 | 48.96876 | 1.71504 | 37264 ft | 422 kts | 141° |
| 2026-04-23 19:28 | 48.88419 | 1.81655 | 37263 ft | 421 kts | 141° |
| 2026-04-23 19:29 | 48.81474 | 1.89967 | 37259 ft | 423 kts | 141° |
| 2026-04-23 19:30 | 48.74519 | 1.98279 | 37254 ft | 423 kts | 141° |
| 2026-04-23 19:31 | 48.67577 | 2.06523 | 37275 ft | 422 kts | 141° |
| 2026-04-23 19:31 | 48.62934 | 2.12025 | 37280 ft | 421 kts | 141° |
| 2026-04-23 19:32 | 48.58319 | 2.17473 | 37276 ft | 421 kts | 141° |
| 2026-04-23 19:32 | 48.54034 | 2.23475 | 37271 ft | 421 kts | 134° |
| 2026-04-23 19:33 | 48.49881 | 2.29793 | 37269 ft | 421 kts | 134° |
| 2026-04-23 19:33 | 48.43657 | 2.39225 | 37268 ft | 422 kts | 135° |
| 2026-04-23 19:34 | 48.39372 | 2.45683 | 37268 ft | 422 kts | 135° |
| 2026-04-23 19:35 | 48.33491 | 2.54528 | 37266 ft | 421 kts | 135° |
| 2026-04-23 19:35 | 48.29306 | 2.60684 | 37265 ft | 421 kts | 140° |
| 2026-04-23 19:36 | 48.24281 | 2.65250 | 37265 ft | 421 kts | 154° |
| 2026-04-23 19:36 | 48.18983 | 2.69002 | 37262 ft | 421 kts | 152° |
| 2026-04-23 19:37 | 48.13835 | 2.73173 | 37259 ft | 420 kts | 150° |
| 2026-04-23 19:37 | 48.08720 | 2.77425 | 37258 ft | 421 kts | 151° |
| 2026-04-23 19:38 | 48.03329 | 2.81001 | 37253 ft | 421 kts | 156° |
| 2026-04-23 19:38 | 47.97943 | 2.84419 | 37249 ft | 421 kts | 156° |
| 2026-04-23 19:39 | 47.92498 | 2.87853 | 37226 ft | 423 kts | 156° |
| 2026-04-23 19:39 | 47.87070 | 2.91273 | 37222 ft | 425 kts | 156° |
| 2026-04-23 19:40 | 47.81617 | 2.94708 | 37215 ft | 425 kts | 156° |
| 2026-04-23 19:40 | 47.76164 | 2.98151 | 37212 ft | 426 kts | 156° |
| 2026-04-23 19:41 | 47.70672 | 3.01628 | 37211 ft | 427 kts | 156° |
| 2026-04-23 19:41 | 47.65208 | 3.05071 | 37211 ft | 427 kts | 156° |
| 2026-04-23 19:42 | 47.59739 | 3.08497 | 37208 ft | 427 kts | 156° |
| 2026-04-23 19:42 | 47.54226 | 3.11929 | 37206 ft | 427 kts | 156° |
| 2026-04-23 19:43 | 47.48751 | 3.15336 | 37201 ft | 427 kts | 156° |
| 2026-04-23 19:43 | 47.43229 | 3.18769 | 37197 ft | 427 kts | 156° |
| 2026-04-23 19:44 | 47.37752 | 3.22169 | 37197 ft | 428 kts | 156° |
| 2026-04-23 19:44 | 47.32255 | 3.25577 | 37194 ft | 428 kts | 156° |
| 2026-04-23 19:45 | 47.27641 | 3.28423 | 37184 ft | 428 kts | 156° |
| 2026-04-23 19:45 | 47.21377 | 3.32282 | 37177 ft | 428 kts | 156° |
| 2026-04-23 19:46 | 47.15833 | 3.35692 | 37188 ft | 430 kts | 156° |
| 2026-04-23 19:46 | 47.10314 | 3.39074 | 37177 ft | 430 kts | 156° |
| 2026-04-23 19:47 | 47.05682 | 3.41908 | 37185 ft | 431 kts | 156° |
| 2026-04-23 19:47 | 46.99216 | 3.45862 | 37187 ft | 431 kts | 156° |
| 2026-04-23 19:48 | 46.93671 | 3.49239 | 37194 ft | 432 kts | 156° |
| 2026-04-23 19:48 | 46.88117 | 3.52608 | 37186 ft | 432 kts | 156° |
| 2026-04-23 19:49 | 46.82559 | 3.55980 | 37184 ft | 432 kts | 156° |
| 2026-04-23 19:49 | 46.77022 | 3.59406 | 37181 ft | 432 kts | 151° |
| 2026-04-23 19:50 | 46.72276 | 3.64762 | 37181 ft | 430 kts | 130° |
| 2026-04-23 19:50 | 46.70524 | 3.68281 | 37183 ft | 429 kts | 119° |
| 2026-04-23 19:50 | 46.69244 | 3.72197 | 37192 ft | 429 kts | 109° |
| 2026-04-23 19:51 | 46.67731 | 3.80603 | 37192 ft | 429 kts | 103° |
| 2026-04-23 19:51 | 46.66289 | 3.89105 | 37195 ft | 430 kts | 104° |
| 2026-04-23 19:52 | 46.65081 | 3.96124 | 37198 ft | 430 kts | 104° |
| 2026-04-23 19:52 | 46.63368 | 4.05985 | 37212 ft | 430 kts | 104° |
| 2026-04-23 19:53 | 46.61900 | 4.14407 | 37224 ft | 429 kts | 104° |
| 2026-04-23 19:53 | 46.60420 | 4.22862 | 37226 ft | 429 kts | 104° |
| 2026-04-23 19:54 | 46.58946 | 4.31252 | 37231 ft | 428 kts | 104° |
| 2026-04-23 19:54 | 46.57462 | 4.39686 | 37229 ft | 427 kts | 104° |
| 2026-04-23 19:55 | 46.55978 | 4.48051 | 37227 ft | 427 kts | 104° |
| 2026-04-23 19:55 | 46.54475 | 4.56456 | 37229 ft | 427 kts | 104° |
| 2026-04-23 19:56 | 46.53227 | 4.63437 | 37227 ft | 426 kts | 104° |
| 2026-04-23 19:56 | 46.51735 | 4.71753 | 37230 ft | 426 kts | 104° |
| 2026-04-23 19:57 | 46.50223 | 4.80132 | 37232 ft | 425 kts | 104° |
| 2026-04-23 19:57 | 46.48722 | 4.88414 | 37228 ft | 425 kts | 105° |
| 2026-04-23 19:58 | 46.47213 | 4.96697 | 37235 ft | 424 kts | 104° |
| 2026-04-23 19:58 | 46.45686 | 5.05017 | 37234 ft | 424 kts | 105° |
| 2026-04-23 19:59 | 46.44166 | 5.13267 | 37232 ft | 423 kts | 105° |
| 2026-04-23 19:59 | 46.42649 | 5.21483 | 37238 ft | 423 kts | 105° |
| 2026-04-23 20:00 | 46.41130 | 5.29713 | 37236 ft | 423 kts | 104° |
| 2026-04-23 20:00 | 46.39605 | 5.37957 | 37239 ft | 422 kts | 105° |
| 2026-04-23 20:01 | 46.38068 | 5.46194 | 37233 ft | 421 kts | 105° |
| 2026-04-23 20:01 | 46.36539 | 5.54377 | 37228 ft | 421 kts | 105° |
| 2026-04-23 20:02 | 46.35004 | 5.62615 | 37231 ft | 421 kts | 105° |
| 2026-04-23 20:02 | 46.33434 | 5.70988 | 37227 ft | 420 kts | 105° |
| 2026-04-23 20:03 | 46.31934 | 5.78947 | 37221 ft | 420 kts | 105° |
| 2026-04-23 20:03 | 46.30383 | 5.87107 | 37222 ft | 421 kts | 105° |
| 2026-04-23 20:04 | 46.28995 | 5.94420 | 37219 ft | 421 kts | 105° |
| 2026-04-23 20:04 | 46.27409 | 6.02706 | 37224 ft | 421 kts | 105° |
| 2026-04-23 20:05 | 46.25575 | 6.10673 | 37222 ft | 421 kts | 116° |
| 2026-04-23 20:05 | 46.22138 | 6.17568 | 37221 ft | 423 kts | 134° |
| 2026-04-23 20:06 | 46.17825 | 6.23358 | 37223 ft | 424 kts | 135° |
| 2026-04-23 20:06 | 46.13476 | 6.29179 | 37220 ft | 424 kts | 135° |
| 2026-04-23 20:07 | 46.09158 | 6.34952 | 37217 ft | 423 kts | 135° |
| 2026-04-23 20:07 | 46.04808 | 6.40750 | 37212 ft | 423 kts | 135° |
| 2026-04-23 20:08 | 46.00476 | 6.46497 | 37211 ft | 423 kts | 135° |
| 2026-04-23 20:08 | 45.96089 | 6.52312 | 37206 ft | 424 kts | 135° |
| 2026-04-23 20:09 | 45.91712 | 6.58101 | 37200 ft | 425 kts | 135° |
| 2026-04-23 20:09 | 45.87355 | 6.63866 | 37199 ft | 426 kts | 135° |
| 2026-04-23 20:10 | 45.83705 | 6.68679 | 37194 ft | 426 kts | 135° |
| 2026-04-23 20:10 | 45.78593 | 6.75383 | 37176 ft | 426 kts | 136° |
| 2026-04-23 20:11 | 45.74169 | 6.81146 | 37187 ft | 427 kts | 136° |
| 2026-04-23 20:11 | 45.69773 | 6.86860 | 37182 ft | 428 kts | 135° |
| 2026-04-23 20:12 | 45.66056 | 6.91692 | 37177 ft | 428 kts | 135° |
| 2026-04-23 20:12 | 45.61640 | 6.97415 | 37168 ft | 428 kts | 135° |
| 2026-04-23 20:13 | 45.57220 | 7.03132 | 37162 ft | 429 kts | 135° |
| 2026-04-23 20:13 | 45.52904 | 7.09068 | 37161 ft | 427 kts | 127° |
| 2026-04-23 20:14 | 45.49641 | 7.16089 | 37162 ft | 425 kts | 119° |
| 2026-04-23 20:14 | 45.49117 | 7.17296 | 37162 ft | 425 kts | 119° |
| 2026-04-23 20:15 | 45.46598 | 7.23035 | 37162 ft | 425 kts | 120° |
| 2026-04-23 20:15 | 45.43421 | 7.30261 | 37160 ft | 425 kts | 119° |
| 2026-04-23 20:16 | 45.40308 | 7.37346 | 37162 ft | 425 kts | 120° |
| 2026-04-23 20:16 | 45.36953 | 7.44369 | 37159 ft | 426 kts | 123° |
| 2026-04-23 20:17 | 45.33460 | 7.51239 | 37154 ft | 426 kts | 123° |
| 2026-04-23 20:17 | 45.29965 | 7.58117 | 37155 ft | 426 kts | 123° |
| 2026-04-23 20:18 | 45.26510 | 7.65022 | 37156 ft | 426 kts | 122° |
| 2026-04-23 20:18 | 45.23063 | 7.71929 | 37153 ft | 426 kts | 122° |
| 2026-04-23 20:19 | 45.19606 | 7.78838 | 37155 ft | 426 kts | 122° |
| 2026-04-23 20:19 | 45.16166 | 7.85680 | 37151 ft | 426 kts | 123° |
| 2026-04-23 20:20 | 45.12699 | 7.92563 | 37149 ft | 426 kts | 123° |
| 2026-04-23 20:20 | 45.09245 | 7.99397 | 37149 ft | 427 kts | 123° |
| 2026-04-23 20:21 | 45.05784 | 8.06232 | 37148 ft | 427 kts | 122° |
| 2026-04-23 20:21 | 45.02288 | 8.13114 | 37149 ft | 428 kts | 122° |
| 2026-04-23 20:22 | 44.98808 | 8.19945 | 37150 ft | 429 kts | 123° |
| 2026-04-23 20:22 | 44.95105 | 8.26637 | 37150 ft | 433 kts | 132° |
| 2026-04-23 20:23 | 44.90150 | 8.31637 | 37149 ft | 440 kts | 151° |
| 2026-04-23 20:23 | 44.84557 | 8.35244 | 37149 ft | 442 kts | 152° |
| 2026-04-23 20:24 | 44.78930 | 8.38876 | 37150 ft | 443 kts | 152° |
| 2026-04-23 20:24 | 44.73324 | 8.42492 | 37152 ft | 443 kts | 152° |
| 2026-04-23 20:25 | 44.68628 | 8.45508 | 37153 ft | 443 kts | 152° |
| 2026-04-23 20:25 | 44.62987 | 8.49129 | 37155 ft | 443 kts | 152° |
| 2026-04-23 20:26 | 44.57377 | 8.52733 | 37154 ft | 444 kts | 152° |
| 2026-04-23 20:26 | 44.51757 | 8.56327 | 37163 ft | 444 kts | 152° |
| 2026-04-23 20:27 | 44.46094 | 8.59929 | 37159 ft | 444 kts | 153° |
| 2026-04-23 20:27 | 44.40464 | 8.63499 | 37161 ft | 444 kts | 153° |
| 2026-04-23 20:28 | 44.34829 | 8.67074 | 37160 ft | 444 kts | 153° |
| 2026-04-23 20:28 | 44.29203 | 8.70637 | 37159 ft | 445 kts | 153° |
| 2026-04-23 20:29 | 44.23648 | 8.74150 | 36575 ft | 450 kts | 153° |
| 2026-04-23 20:29 | 44.20208 | 8.76327 | 35543 ft | 459 kts | 153° |
| 2026-04-23 20:29 | 44.17284 | 8.78173 | 34641 ft | 465 kts | 153° |
| 2026-04-23 20:29 | 44.14312 | 8.80046 | 33744 ft | 470 kts | 153° |
| 2026-04-23 20:30 | 44.11328 | 8.81919 | 32909 ft | 472 kts | 153° |
| 2026-04-23 20:30 | 44.05291 | 8.85698 | 31432 ft | 471 kts | 153° |
| 2026-04-23 20:30 | 44.02342 | 8.87543 | 30679 ft | 470 kts | 153° |
| 2026-04-23 20:31 | 43.99331 | 8.89427 | 29998 ft | 467 kts | 153° |
| 2026-04-23 20:31 | 43.96381 | 8.91272 | 29370 ft | 463 kts | 153° |
| 2026-04-23 20:31 | 43.93457 | 8.93098 | 28740 ft | 459 kts | 153° |
| 2026-04-23 20:31 | 43.90563 | 8.94904 | 28101 ft | 455 kts | 153° |
| 2026-04-23 20:32 | 43.87688 | 8.96698 | 27451 ft | 451 kts | 153° |
| 2026-04-23 20:32 | 43.84833 | 8.98475 | 26803 ft | 447 kts | 153° |
| 2026-04-23 20:32 | 43.82121 | 9.00505 | 26159 ft | 441 kts | 143° |
| 2026-04-23 20:32 | 43.79769 | 9.03164 | 25533 ft | 433 kts | 132° |
| 2026-04-23 20:33 | 43.77819 | 9.06304 | 24886 ft | 428 kts | 126° |
| 2026-04-23 20:33 | 43.75942 | 9.09559 | 24218 ft | 425 kts | 126° |
| 2026-04-23 20:33 | 43.74100 | 9.12738 | 23571 ft | 422 kts | 126° |
| 2026-04-23 20:33 | 43.72268 | 9.15885 | 22925 ft | 419 kts | 126° |
| 2026-04-23 20:34 | 43.70443 | 9.19006 | 22309 ft | 415 kts | 126° |
| 2026-04-23 20:34 | 43.68634 | 9.22095 | 21710 ft | 412 kts | 126° |
| 2026-04-23 20:34 | 43.66841 | 9.25116 | 21512 ft | 399 kts | 127° |
| 2026-04-23 20:34 | 43.65104 | 9.28044 | 21077 ft | 393 kts | 126° |
| 2026-04-23 20:35 | 43.63367 | 9.31001 | 20266 ft | 399 kts | 126° |
| 2026-04-23 20:35 | 43.61602 | 9.34021 | 19669 ft | 398 kts | 126° |
| 2026-04-23 20:35 | 43.59873 | 9.36986 | 19119 ft | 395 kts | 126° |
| 2026-04-23 20:35 | 43.58159 | 9.39919 | 18570 ft | 391 kts | 126° |
| 2026-04-23 20:36 | 43.56454 | 9.42828 | 18007 ft | 388 kts | 126° |
| 2026-04-23 20:36 | 43.54764 | 9.45704 | 17459 ft | 384 kts | 126° |
| 2026-04-23 20:36 | 43.53144 | 9.48577 | 16598 ft | 375 kts | 119° |
| 2026-04-23 20:36 | 43.52040 | 9.51776 | 15908 ft | 367 kts | 104° |
| 2026-04-23 20:37 | 43.51657 | 9.54024 | 15535 ft | 361 kts | 95° |
| 2026-04-23 20:37 | 43.51599 | 9.57471 | 14934 ft | 353 kts | 81° |
| 2026-04-23 20:37 | 43.52129 | 9.60714 | 14356 ft | 341 kts | 71° |
| 2026-04-23 20:37 | 43.52793 | 9.63763 | 14065 ft | 322 kts | 71° |
| 2026-04-23 20:38 | 43.53413 | 9.66652 | 13935 ft | 308 kts | 71° |
| 2026-04-23 20:38 | 43.54006 | 9.69428 | 13807 ft | 296 kts | 71° |
| 2026-04-23 20:38 | 43.54576 | 9.72099 | 13606 ft | 287 kts | 71° |
| 2026-04-23 20:38 | 43.55199 | 9.75016 | 13425 ft | 277 kts | 71° |
| 2026-04-23 20:39 | 43.55731 | 9.77504 | 13139 ft | 272 kts | 70° |
| 2026-04-23 20:39 | 43.56265 | 9.79998 | 12710 ft | 270 kts | 70° |
| 2026-04-23 20:39 | 43.56796 | 9.82472 | 12241 ft | 268 kts | 70° |
| 2026-04-23 20:39 | 43.57320 | 9.84924 | 11699 ft | 265 kts | 70° |
| 2026-04-23 20:40 | 43.57842 | 9.87382 | 11148 ft | 263 kts | 71° |
| 2026-04-23 20:40 | 43.58361 | 9.89822 | 10647 ft | 266 kts | 71° |
| 2026-04-23 20:40 | 43.58881 | 9.92278 | 10240 ft | 267 kts | 71° |
| 2026-04-23 20:40 | 43.59435 | 9.94663 | 10154 ft | 254 kts | 64° |
| 2026-04-23 20:41 | 43.60308 | 9.96585 | 10160 ft | 242 kts | 48° |
| 2026-04-23 20:41 | 43.61581 | 9.98114 | 10167 ft | 239 kts | 36° |
| 2026-04-23 20:41 | 43.62921 | 9.99465 | 10164 ft | 239 kts | 36° |
| 2026-04-23 20:41 | 43.64259 | 10.00827 | 10167 ft | 239 kts | 37° |
| 2026-04-23 20:42 | 43.65586 | 10.02187 | 10163 ft | 238 kts | 37° |
| 2026-04-23 20:42 | 43.66915 | 10.03552 | 10163 ft | 238 kts | 37° |
| 2026-04-23 20:42 | 43.68249 | 10.04919 | 10167 ft | 238 kts | 37° |
| 2026-04-23 20:42 | 43.69599 | 10.06298 | 10008 ft | 239 kts | 37° |
| 2026-04-23 20:43 | 43.70932 | 10.07689 | 9660 ft | 241 kts | 41° |
| 2026-04-23 20:43 | 43.71849 | 10.09602 | 9319 ft | 243 kts | 73° |
| 2026-04-23 20:43 | 43.71827 | 10.11930 | 8973 ft | 250 kts | 107° |
| 2026-04-23 20:43 | 43.70910 | 10.14019 | 8667 ft | 252 kts | 125° |
| 2026-04-23 20:44 | 43.69854 | 10.15953 | 8489 ft | 252 kts | 125° |
| 2026-04-23 20:44 | 43.68783 | 10.17862 | 8341 ft | 252 kts | 130° |
| 2026-04-23 20:44 | 43.67327 | 10.19153 | 8193 ft | 250 kts | 164° |
| 2026-04-23 20:44 | 43.65631 | 10.19119 | 8067 ft | 246 kts | 199° |
| 2026-04-23 20:45 | 43.64156 | 10.17911 | 7936 ft | 245 kts | 218° |
| 2026-04-23 20:45 | 43.62795 | 10.16507 | 7804 ft | 244 kts | 217° |
| 2026-04-23 20:45 | 43.61438 | 10.15111 | 7679 ft | 243 kts | 217° |
| 2026-04-23 20:45 | 43.60083 | 10.13720 | 7550 ft | 242 kts | 217° |
| 2026-04-23 20:46 | 43.58731 | 10.12336 | 7437 ft | 241 kts | 217° |
| 2026-04-23 20:46 | 43.57385 | 10.10958 | 7321 ft | 241 kts | 217° |
| 2026-04-23 20:46 | 43.56042 | 10.09582 | 7205 ft | 240 kts | 217° |
| 2026-04-23 20:46 | 43.54579 | 10.08493 | 6853 ft | 241 kts | 189° |
| 2026-04-23 20:47 | 43.52972 | 10.08790 | 6508 ft | 232 kts | 148° |
| 2026-04-23 20:47 | 43.51863 | 10.10334 | 6196 ft | 228 kts | 119° |
| 2026-04-23 20:47 | 43.51024 | 10.12198 | 5871 ft | 229 kts | 122° |
| 2026-04-23 20:47 | 43.50138 | 10.14024 | 5518 ft | 228 kts | 116° |
| 2026-04-23 20:48 | 43.49629 | 10.16060 | 5148 ft | 225 kts | 96° |
| 2026-04-23 20:48 | 43.49656 | 10.18185 | 4710 ft | 221 kts | 77° |
| 2026-04-23 20:48 | 43.50213 | 10.20187 | 4240 ft | 226 kts | 57° |
| 2026-04-23 20:48 | 43.51252 | 10.21823 | 3917 ft | 223 kts | 38° |
| 2026-04-23 20:49 | 43.52485 | 10.23090 | 3621 ft | 219 kts | 36° |
| 2026-04-23 20:49 | 43.53699 | 10.24334 | 3331 ft | 216 kts | 36° |
| 2026-04-23 20:49 | 43.54893 | 10.25558 | 3047 ft | 213 kts | 36° |
| 2026-04-23 20:49 | 43.56069 | 10.26764 | 2767 ft | 209 kts | 36° |
| 2026-04-23 20:50 | 43.57207 | 10.27932 | 2495 ft | 199 kts | 36° |
| 2026-04-23 20:50 | 43.58281 | 10.29034 | 2249 ft | 186 kts | 37° |
| 2026-04-23 20:50 | 43.59289 | 10.30072 | 1999 ft | 176 kts | 36° |
| 2026-04-23 20:50 | 43.60239 | 10.31047 | 1771 ft | 164 kts | 35° |
| 2026-04-23 20:51 | 43.61113 | 10.31947 | 1569 ft | 150 kts | 36° |
| 2026-04-23 20:51 | 43.61941 | 10.32798 | 1369 ft | 144 kts | 35° |
| 2026-04-23 20:51 | 43.62467 | 10.33339 | 1244 ft | 142 kts | 35° |
| 2026-04-23 20:51 | 43.63259 | 10.34154 | 1058 ft | 141 kts | 35° |
| 2026-04-23 20:52 | 43.64047 | 10.34964 | 871 ft | 141 kts | 35° |
| 2026-04-23 20:52 | 43.64825 | 10.35765 | 680 ft | 140 kts | 35° |
| 2026-04-23 20:52 | 43.65604 | 10.36567 | 496 ft | 139 kts | 36° |
| 2026-04-23 20:52 | 43.66379 | 10.37365 | 315 ft | 139 kts | 35° |
| 2026-04-23 20:53 | 43.67152 | 10.38161 | 131 ft | 138 kts | 36° |
| 2026-04-23 20:53 | 43.67863 | 10.38895 | 20 ft | 127 kts | 37° |
| 2026-04-23 20:53 | 43.68464 | 10.39513 | 21 ft | 84 kts | 37° |
| 2026-04-23 20:53 | 43.68755 | 10.39783 | 17 ft | 22 kts | 345° |
| 2026-04-23 20:54 | 43.68857 | 10.39629 | 18 ft | 18 kts | 328° |
| 2026-04-23 20:54 | 43.68964 | 10.39705 | 19 ft | 18 kts | 37° |
| 2026-04-23 20:54 | 43.68974 | 10.39715 | 19 ft | 0 kts | 37° |
| 2026-04-23 20:57 | 43.68986 | 10.39727 | 20 ft | 5 kts | 37° |
| 2026-04-23 20:57 | 43.69030 | 10.39772 | 21 ft | 11 kts | 36° |
| 2026-04-23 20:57 | 43.69114 | 10.39855 | 23 ft | 18 kts | 34° |
| 2026-04-23 20:57 | 43.69244 | 10.39917 | 21 ft | 23 kts | 355° |
| 2026-04-23 20:58 | 43.69423 | 10.39894 | 16 ft | 28 kts | 5° |
| 2026-04-23 20:58 | 43.69629 | 10.39937 | 15 ft | 31 kts | 9° |
| 2026-04-23 20:58 | 43.69753 | 10.39973 | 15 ft | 6 kts | 8° |
| 2026-04-23 20:58 | 43.69765 | 10.39976 | 15 ft | 0 kts | 8° |